Terminal Aerodrome Forecast
Issued by NWS

Home | Current Version | Previous Version | Graphics & Text | Print | Product List | Glossary On
Versions: 1 2 3 4 5 6 7 8 9 10 11 12 13 14 15 16 17 18 19 20 21
000
FTUS43 KICT 240801 AAA
TAFHUT
TAF AMD
KHUT 240801Z 2408/2506 11013KT P6SM SKC
     FM241100 12014KT 6SM BR SCT009 BKN015
      TEMPO 2411/2415 4SM BR BKN009
     FM241600 33011KT P6SM SCT009 BKN015
     FM241800 33017G25KT P6SM SCT030=

USA.gov is the U.S. government's official web portal to all federal, state and local government web resources and services.